sensor_id;sensor_type;location;lat;lon;timestamp;pressure;altitude;pressure_sealevel;temperature
62180;BMP280;48172;53.374;10.722;2022-07-23T00:01:25;101906.53;;;27.62
62180;BMP280;48172;53.374;10.722;2022-07-23T00:03:53;101903.31;;;27.64
62180;BMP280;48172;53.374;10.722;2022-07-23T00:06:21;101899.34;;;27.65
62180;BMP280;48172;53.374;10.722;2022-07-23T00:08:48;101898.59;;;27.64
62180;BMP280;48172;53.374;10.722;2022-07-23T00:11:14;101901.81;;;27.63
62180;BMP280;48172;53.374;10.722;2022-07-23T00:13:41;101900.56;;;27.64
62180;BMP280;48172;53.374;10.722;2022-07-23T00:16:07;101898.59;;;27.64
62180;BMP280;48172;53.374;10.722;2022-07-23T00:18:34;101897.53;;;27.62
62180;BMP280;48172;53.374;10.722;2022-07-23T00:21:00;101883.06;;;27.61
62180;BMP280;48172;53.374;10.722;2022-07-23T00:23:27;101888.56;;;27.61
62180;BMP280;48172;53.374;10.722;2022-07-23T00:25:55;101891.28;;;27.61
62180;BMP280;48172;53.374;10.722;2022-07-23T00:28:21;101889.78;;;27.60
62180;BMP280;48172;53.374;10.722;2022-07-23T00:30:48;101889.78;;;27.60
62180;BMP280;48172;53.374;10.722;2022-07-23T00:33:14;101881.53;;;27.60
62180;BMP280;48172;53.374;10.722;2022-07-23T00:35:41;101880.03;;;27.59
62180;BMP280;48172;53.374;10.722;2022-07-23T00:38:08;101885.53;;;27.59
62180;BMP280;48172;53.374;10.722;2022-07-23T00:40:36;101880.78;;;27.60
62180;BMP280;48172;53.374;10.722;2022-07-23T00:43:03;101882.78;;;27.59
62180;BMP280;48172;53.374;10.722;2022-07-23T00:45:29;101884.78;;;27.59
62180;BMP280;48172;53.374;10.722;2022-07-23T00:47:56;101883.28;;;27.58
62180;BMP280;48172;53.374;10.722;2022-07-23T00:50:23;101880.53;;;27.58
62180;BMP280;48172;53.374;10.722;2022-07-23T00:52:49;101881.53;;;27.60
62180;BMP280;48172;53.374;10.722;2022-07-23T00:55:16;101886.03;;;27.58
62180;BMP280;48172;53.374;10.722;2022-07-23T00:57:43;101877.78;;;27.58
62180;BMP280;48172;53.374;10.722;2022-07-23T01:00:10;101880.53;;;27.58
62180;BMP280;48172;53.374;10.722;2022-07-23T01:02:38;101880.97;;;27.56
62180;BMP280;48172;53.374;10.722;2022-07-23T01:05:05;101883.72;;;27.56
62180;BMP280;48172;53.374;10.722;2022-07-23T01:07:31;101893.47;;;27.57
62180;BMP280;48172;53.374;10.722;2022-07-23T01:09:59;101888.47;;;27.56
62180;BMP280;48172;53.374;10.722;2022-07-23T01:12:26;101885.75;;;27.56
62180;BMP280;48172;53.374;10.722;2022-07-23T01:14:56;101884.22;;;27.55
62180;BMP280;48172;53.374;10.722;2022-07-23T01:17:22;101878.72;;;27.55
62180;BMP280;48172;53.374;10.722;2022-07-23T01:19:49;101876.00;;;27.55
62180;BMP280;48172;53.374;10.722;2022-07-23T01:22:15;101870.97;;;27.53
62180;BMP280;48172;53.374;10.722;2022-07-23T01:24:43;101871.72;;;27.54
62180;BMP280;48172;53.374;10.722;2022-07-23T01:27:10;101878.44;;;27.53
62180;BMP280;48172;53.374;10.722;2022-07-23T01:29:36;101864.72;;;27.53
62180;BMP280;48172;53.374;10.722;2022-07-23T01:32:03;101864.72;;;27.53
62180;BMP280;48172;53.374;10.722;2022-07-23T01:34:29;101867.47;;;27.53
62180;BMP280;48172;53.374;10.722;2022-07-23T01:36:56;101867.47;;;27.53
62180;BMP280;48172;53.374;10.722;2022-07-23T01:39:22;101864.44;;;27.51
62180;BMP280;48172;53.374;10.722;2022-07-23T01:41:49;101857.72;;;27.52
62180;BMP280;48172;53.374;10.722;2022-07-23T01:44:16;101854.97;;;27.52
62180;BMP280;48172;53.374;10.722;2022-07-23T01:46:43;101851.97;;;27.50
62180;BMP280;48172;53.374;10.722;2022-07-23T01:49:09;101847.97;;;27.51
62180;BMP280;48172;53.374;10.722;2022-07-23T01:51:36;101840.25;;;27.49
62180;BMP280;48172;53.374;10.722;2022-07-23T01:54:02;101848.47;;;27.49
62180;BMP280;48172;53.374;10.722;2022-07-23T01:56:29;101841.00;;;27.50
62180;BMP280;48172;53.374;10.722;2022-07-23T01:58:55;101839.47;;;27.49
62180;BMP280;48172;53.374;10.722;2022-07-23T02:01:22;101825.00;;;27.48
62180;BMP280;48172;53.374;10.722;2022-07-23T02:03:48;101832.44;;;27.48
62180;BMP280;48172;53.374;10.722;2022-07-23T02:06:15;101823.47;;;27.47
62180;BMP280;48172;53.374;10.722;2022-07-23T02:08:41;101838.72;;;27.48
62180;BMP280;48172;53.374;10.722;2022-07-23T02:11:08;101820.72;;;27.47
62180;BMP280;48172;53.374;10.722;2022-07-23T02:13:34;101821.22;;;27.46
62180;BMP280;48172;53.374;10.722;2022-07-23T02:16:00;101828.22;;;27.47
62180;BMP280;48172;53.374;10.722;2022-07-23T02:18:27;101821.22;;;27.46
62180;BMP280;48172;53.374;10.722;2022-07-23T02:20:53;101829.44;;;27.46
62180;BMP280;48172;53.374;10.722;2022-07-23T02:23:20;101832.19;;;27.46
62180;BMP280;48172;53.374;10.722;2022-07-23T02:25:46;101828.69;;;27.45
62180;BMP280;48172;53.374;10.722;2022-07-23T02:28:13;101828.69;;;27.45
62180;BMP280;48172;53.374;10.722;2022-07-23T02:30:39;101829.16;;;27.44
62180;BMP280;48172;53.374;10.722;2022-07-23T02:33:06;101827.19;;;27.44
62180;BMP280;48172;53.374;10.722;2022-07-23T02:35:32;101813.94;;;27.43
62180;BMP280;48172;53.374;10.722;2022-07-23T02:37:59;101811.47;;;27.45
62180;BMP280;48172;53.374;10.722;2022-07-23T02:40:25;101811.94;;;27.43
62180;BMP280;48172;53.374;10.722;2022-07-23T02:42:51;101807.22;;;27.44
62180;BMP280;48172;53.374;10.722;2022-07-23T02:45:18;101806.44;;;27.43
62180;BMP280;48172;53.374;10.722;2022-07-23T02:47:44;101800.69;;;27.41
62180;BMP280;48172;53.374;10.722;2022-07-23T02:50:11;101807.69;;;27.42
62180;BMP280;48172;53.374;10.722;2022-07-23T02:52:38;101808.44;;;27.43
62180;BMP280;48172;53.374;10.722;2022-07-23T02:55:05;101806.94;;;27.42
62180;BMP280;48172;53.374;10.722;2022-07-23T02:57:32;101810.44;;;27.42
62180;BMP280;48172;53.374;10.722;2022-07-23T02:59:58;101826.13;;;27.42
62180;BMP280;48172;53.374;10.722;2022-07-23T03:02:24;101817.91;;;27.42
62180;BMP280;48172;53.374;10.722;2022-07-23T03:04:51;101823.13;;;27.40
62180;BMP280;48172;53.374;10.722;2022-07-23T03:07:17;101816.91;;;27.39
62180;BMP280;48172;53.374;10.722;2022-07-23T03:09:44;101803.94;;;27.40
62180;BMP280;48172;53.374;10.722;2022-07-23T03:12:10;101807.88;;;27.39
62180;BMP280;48172;53.374;10.722;2022-07-23T03:14:39;101800.88;;;27.38
62180;BMP280;48172;53.374;10.722;2022-07-23T03:17:07;101800.16;;;27.37
62180;BMP280;48172;53.374;10.722;2022-07-23T03:19:34;101802.88;;;27.37
62180;BMP280;48172;53.374;10.722;2022-07-23T03:22:00;101814.59;;;27.38
62180;BMP280;48172;53.374;10.722;2022-07-23T03:24:26;101819.34;;;27.37
62180;BMP280;48172;53.374;10.722;2022-07-23T03:27:11;101812.34;;;27.36
62180;BMP280;48172;53.374;10.722;2022-07-23T03:29:38;101815.09;;;27.36
62180;BMP280;48172;53.374;10.722;2022-07-23T03:32:04;101824.09;;;27.37
62180;BMP280;48172;53.374;10.722;2022-07-23T03:34:31;101816.63;;;27.37
62180;BMP280;48172;53.374;10.722;2022-07-23T03:36:57;101822.56;;;27.35
62180;BMP280;48172;53.374;10.722;2022-07-23T03:39:24;101815.84;;;27.37
62180;BMP280;48172;53.374;10.722;2022-07-23T03:41:50;101821.34;;;27.37
62180;BMP280;48172;53.374;10.722;2022-07-23T03:44:17;101821.81;;;27.35
62180;BMP280;48172;53.374;10.722;2022-07-23T03:46:43;101831.56;;;27.36
62180;BMP280;48172;53.374;10.722;2022-07-23T03:49:09;101825.78;;;27.34
62180;BMP280;48172;53.374;10.722;2022-07-23T03:51:36;101829.75;;;27.33
62180;BMP280;48172;53.374;10.722;2022-07-23T03:54:02;101834.50;;;27.32
62180;BMP280;48172;53.374;10.722;2022-07-23T03:56:29;101834.50;;;27.32
62180;BMP280;48172;53.374;10.722;2022-07-23T03:58:55;101835.25;;;27.33
62180;BMP280;48172;53.374;10.722;2022-07-23T04:01:22;101842.25;;;27.34
62180;BMP280;48172;53.374;10.722;2022-07-23T04:03:49;101829.75;;;27.33
62180;BMP280;48172;53.374;10.722;2022-07-23T04:06:15;101835.25;;;27.33
62180;BMP280;48172;53.374;10.722;2022-07-23T04:08:42;101835.25;;;27.33
62180;BMP280;48172;53.374;10.722;2022-07-23T04:11:08;101824.75;;;27.31
62180;BMP280;48172;53.374;10.722;2022-07-23T04:13:35;101823.50;;;27.32
62180;BMP280;48172;53.374;10.722;2022-07-23T04:16:01;101833.75;;;27.32
62180;BMP280;48172;53.374;10.722;2022-07-23T04:18:28;101826.75;;;27.31
62180;BMP280;48172;53.374;10.722;2022-07-23T04:20:55;101817.03;;;27.30
62180;BMP280;48172;53.374;10.722;2022-07-23T04:23:21;101825.25;;;27.30
62180;BMP280;48172;53.374;10.722;2022-07-23T04:25:51;101830.25;;;27.31
62180;BMP280;48172;53.374;10.722;2022-07-23T04:28:18;101828.75;;;27.30
62180;BMP280;48172;53.374;10.722;2022-07-23T04:30:44;101830.25;;;27.31
62180;BMP280;48172;53.374;10.722;2022-07-23T04:33:10;101831.50;;;27.30
62180;BMP280;48172;53.374;10.722;2022-07-23T04:35:37;101841.22;;;27.31
62180;BMP280;48172;53.374;10.722;2022-07-23T04:38:03;101838.47;;;27.31
62180;BMP280;48172;53.374;10.722;2022-07-23T04:40:31;101843.22;;;27.31
62180;BMP280;48172;53.374;10.722;2022-07-23T04:42:58;101844.47;;;27.30
62180;BMP280;48172;53.374;10.722;2022-07-23T04:45:24;101845.97;;;27.31
62180;BMP280;48172;53.374;10.722;2022-07-23T04:47:51;101840.16;;;27.29
62180;BMP280;48172;53.374;10.722;2022-07-23T04:50:17;101836.22;;;27.30
62180;BMP280;48172;53.374;10.722;2022-07-23T04:52:48;101838.97;;;27.30
62180;BMP280;48172;53.374;10.722;2022-07-23T04:55:16;101836.22;;;27.30
62180;BMP280;48172;53.374;10.722;2022-07-23T04:57:42;101840.94;;;27.29
62180;BMP280;48172;53.374;10.722;2022-07-23T05:00:09;101839.41;;;27.28
62180;BMP280;48172;53.374;10.722;2022-07-23T05:02:35;101840.66;;;27.27
62180;BMP280;48172;53.374;10.722;2022-07-23T05:05:02;101845.41;;;27.27
62180;BMP280;48172;53.374;10.722;2022-07-23T05:07:28;101843.13;;;27.25
62180;BMP280;48172;53.374;10.722;2022-07-23T05:09:55;101852.38;;;27.28
62180;BMP280;48172;53.374;10.722;2022-07-23T05:12:21;101855.13;;;27.28
62180;BMP280;48172;53.374;10.722;2022-07-23T05:14:48;101857.88;;;27.28
62180;BMP280;48172;53.374;10.722;2022-07-23T05:17:14;101855.13;;;27.28
62180;BMP280;48172;53.374;10.722;2022-07-23T05:19:40;101855.63;;;27.26
62180;BMP280;48172;53.374;10.722;2022-07-23T05:22:07;101857.59;;;27.26
62180;BMP280;48172;53.374;10.722;2022-07-23T05:24:33;101863.09;;;27.26
62180;BMP280;48172;53.374;10.722;2022-07-23T05:27:00;101864.63;;;27.27
62180;BMP280;48172;53.374;10.722;2022-07-23T05:29:26;101847.38;;;27.26
62180;BMP280;48172;53.374;10.722;2022-07-23T05:31:53;101849.38;;;27.26
62180;BMP280;48172;53.374;10.722;2022-07-23T05:34:19;101849.84;;;27.24
62180;BMP280;48172;53.374;10.722;2022-07-23T05:36:46;101854.09;;;27.25
62180;BMP280;48172;53.374;10.722;2022-07-23T05:39:14;101858.84;;;27.25
62180;BMP280;48172;53.374;10.722;2022-07-23T05:41:41;101849.38;;;27.26
62180;BMP280;48172;53.374;10.722;2022-07-23T05:44:08;101845.59;;;27.23
62180;BMP280;48172;53.374;10.722;2022-07-23T05:46:34;101845.59;;;27.23
62180;BMP280;48172;53.374;10.722;2022-07-23T05:49:01;101854.88;;;27.26
62180;BMP280;48172;53.374;10.722;2022-07-23T05:51:28;101856.56;;;27.23
62180;BMP280;48172;53.374;10.722;2022-07-23T05:53:54;101858.56;;;27.23
62180;BMP280;48172;53.374;10.722;2022-07-23T05:56:21;101863.28;;;27.22
62180;BMP280;48172;53.374;10.722;2022-07-23T05:58:47;101865.56;;;27.24
62180;BMP280;48172;53.374;10.722;2022-07-23T06:01:14;101861.28;;;27.23
62180;BMP280;48172;53.374;10.722;2022-07-23T06:03:40;101864.03;;;27.23
62180;BMP280;48172;53.374;10.722;2022-07-23T06:06:07;101855.81;;;27.23
62180;BMP280;48172;53.374;10.722;2022-07-23T06:08:33;101861.78;;;27.21
62180;BMP280;48172;53.374;10.722;2022-07-23T06:11:00;101876.25;;;27.22
62180;BMP280;48172;53.374;10.722;2022-07-23T06:13:26;101867.28;;;27.21
62180;BMP280;48172;53.374;10.722;2022-07-23T06:15:53;101877.75;;;27.23
62180;BMP280;48172;53.374;10.722;2022-07-23T06:18:19;101875.00;;;27.23
62180;BMP280;48172;53.374;10.722;2022-07-23T06:20:45;101871.03;;;27.24
62180;BMP280;48172;53.374;10.722;2022-07-23T06:23:16;101868.00;;;27.22
62180;BMP280;48172;53.374;10.722;2022-07-23T06:25:42;101863.28;;;27.22
62180;BMP280;48172;53.374;10.722;2022-07-23T06:28:08;101857.78;;;27.22
62180;BMP280;48172;53.374;10.722;2022-07-23T06:30:35;101864.03;;;27.23
62180;BMP280;48172;53.374;10.722;2022-07-23T06:33:01;101868.78;;;27.22
62180;BMP280;48172;53.374;10.722;2022-07-23T06:35:28;101861.28;;;27.23
62180;BMP280;48172;53.374;10.722;2022-07-23T06:37:55;101867.53;;;27.23
62180;BMP280;48172;53.374;10.722;2022-07-23T06:40:21;101867.28;;;27.21
62180;BMP280;48172;53.374;10.722;2022-07-23T06:42:48;101864.78;;;27.23
62180;BMP280;48172;53.374;10.722;2022-07-23T06:45:14;101868.00;;;27.22
62180;BMP280;48172;53.374;10.722;2022-07-23T06:47:41;101865.56;;;27.24
62180;BMP280;48172;53.374;10.722;2022-07-23T06:50:08;101873.31;;;27.25
62180;BMP280;48172;53.374;10.722;2022-07-23T06:52:34;101867.34;;;27.27
62180;BMP280;48172;53.374;10.722;2022-07-23T06:55:07;101867.81;;;27.25
62180;BMP280;48172;53.374;10.722;2022-07-23T06:57:34;101871.31;;;27.26
62180;BMP280;48172;53.374;10.722;2022-07-23T07:00:00;101876.81;;;27.26
62180;BMP280;48172;53.374;10.722;2022-07-23T07:02:27;101874.81;;;27.26
62180;BMP280;48172;53.374;10.722;2022-07-23T07:04:53;101866.59;;;27.26
62180;BMP280;48172;53.374;10.722;2022-07-23T07:07:19;101870.84;;;27.27
62180;BMP280;48172;53.374;10.722;2022-07-23T07:09:46;101860.59;;;27.28
62180;BMP280;48172;53.374;10.722;2022-07-23T07:12:13;101867.34;;;27.27
62180;BMP280;48172;53.374;10.722;2022-07-23T07:14:40;101861.38;;;27.28
62180;BMP280;48172;53.374;10.722;2022-07-23T07:17:06;101864.88;;;27.29
62180;BMP280;48172;53.374;10.722;2022-07-23T07:19:33;101868.38;;;27.29
62180;BMP280;48172;53.374;10.722;2022-07-23T07:21:59;101860.13;;;27.29
62180;BMP280;48172;53.374;10.722;2022-07-23T07:24:25;101856.63;;;27.29
62180;BMP280;48172;53.374;10.722;2022-07-23T07:26:59;101862.13;;;27.29
62180;BMP280;48172;53.374;10.722;2022-07-23T07:29:26;101869.16;;;27.30
62180;BMP280;48172;53.374;10.722;2022-07-23T07:31:53;101862.13;;;27.29
62180;BMP280;48172;53.374;10.722;2022-07-23T07:34:19;101864.41;;;27.30
62180;BMP280;48172;53.374;10.722;2022-07-23T07:36:46;101866.66;;;27.32
62180;BMP280;48172;53.374;10.722;2022-07-23T07:39:12;101866.66;;;27.32
62180;BMP280;48172;53.374;10.722;2022-07-23T07:41:40;101875.66;;;27.32
62180;BMP280;48172;53.374;10.722;2022-07-23T07:44:07;101877.16;;;27.33
62180;BMP280;48172;53.374;10.722;2022-07-23T07:46:33;101868.94;;;27.33
62180;BMP280;48172;53.374;10.722;2022-07-23T07:49:00;101874.72;;;27.35
62180;BMP280;48172;53.374;10.722;2022-07-23T07:51:26;101871.22;;;27.35
62180;BMP280;48172;53.374;10.722;2022-07-23T07:53:53;101866.00;;;27.37
62180;BMP280;48172;53.374;10.722;2022-07-23T07:56:19;101866.00;;;27.37
62180;BMP280;48172;53.374;10.722;2022-07-23T07:58:46;101867.06;;;27.40
62180;BMP280;48172;53.374;10.722;2022-07-23T08:01:13;101867.81;;;27.40
62180;BMP280;48172;53.374;10.722;2022-07-23T08:03:39;101864.09;;;27.43
62180;BMP280;48172;53.374;10.722;2022-07-23T08:06:06;101853.88;;;27.44
62180;BMP280;48172;53.374;10.722;2022-07-23T08:08:32;101855.38;;;27.45
62180;BMP280;48172;53.374;10.722;2022-07-23T08:10:59;101857.66;;;27.46
62180;BMP280;48172;53.374;10.722;2022-07-23T08:13:25;101859.91;;;27.48
62180;BMP280;48172;53.374;10.722;2022-07-23T08:15:52;101860.22;;;27.50
62180;BMP280;48172;53.374;10.722;2022-07-23T08:18:19;101864.44;;;27.51
62180;BMP280;48172;53.374;10.722;2022-07-23T08:20:46;101880.44;;;27.52
62180;BMP280;48172;53.374;10.722;2022-07-23T08:23:12;101881.19;;;27.53
62180;BMP280;48172;53.374;10.722;2022-07-23T08:25:40;101877.22;;;27.54
62180;BMP280;48172;53.374;10.722;2022-07-23T08:28:08;101883.47;;;27.54
62180;BMP280;48172;53.374;10.722;2022-07-23T08:30:35;101880.97;;;27.56
62180;BMP280;48172;53.374;10.722;2022-07-23T08:33:03;101888.75;;;27.58
62180;BMP280;48172;53.374;10.722;2022-07-23T08:35:31;101882.78;;;27.59
62180;BMP280;48172;53.374;10.722;2022-07-23T08:37:58;101879.56;;;27.61
62180;BMP280;48172;53.374;10.722;2022-07-23T08:40:29;101881.06;;;27.62
62180;BMP280;48172;53.374;10.722;2022-07-23T08:42:56;101888.06;;;27.63
62180;BMP280;48172;53.374;10.722;2022-07-23T08:45:23;101885.31;;;27.63
62180;BMP280;48172;53.374;10.722;2022-07-23T08:47:55;101889.59;;;27.64
62180;BMP280;48172;53.374;10.722;2022-07-23T08:50:23;101882.13;;;27.64
62180;BMP280;48172;53.374;10.722;2022-07-23T08:52:50;101888.34;;;27.65
62180;BMP280;48172;53.374;10.722;2022-07-23T08:55:18;101875.38;;;27.65
62180;BMP280;48172;53.374;10.722;2022-07-23T08:57:47;101881.91;;;27.68
62180;BMP280;48172;53.374;10.722;2022-07-23T09:00:14;101879.16;;;27.68
62180;BMP280;48172;53.374;10.722;2022-07-23T09:02:42;101879.16;;;27.68
62180;BMP280;48172;53.374;10.722;2022-07-23T09:05:09;101897.88;;;27.69
62180;BMP280;48172;53.374;10.722;2022-07-23T09:07:37;101897.88;;;27.69
62180;BMP280;48172;53.374;10.722;2022-07-23T09:10:05;101895.91;;;27.70
62180;BMP280;48172;53.374;10.722;2022-07-23T09:12:31;101881.69;;;27.71
62180;BMP280;48172;53.374;10.722;2022-07-23T09:15:02;101885.69;;;27.70
62180;BMP280;48172;53.374;10.722;2022-07-23T09:17:29;101891.91;;;27.71
62180;BMP280;48172;53.374;10.722;2022-07-23T09:20:12;101887.94;;;27.72
62180;BMP280;48172;53.374;10.722;2022-07-23T09:22:41;101891.91;;;27.71
62180;BMP280;48172;53.374;10.722;2022-07-23T09:25:11;101891.91;;;27.71
62180;BMP280;48172;53.374;10.722;2022-07-23T09:27:58;101898.66;;;27.70
62180;BMP280;48172;53.374;10.722;2022-07-23T09:30:30;101904.91;;;27.70
62180;BMP280;48172;53.374;10.722;2022-07-23T09:35:45;101907.94;;;27.72
62180;BMP280;48172;53.374;10.722;2022-07-23T09:38:12;101901.69;;;27.72
62180;BMP280;48172;53.374;10.722;2022-07-23T09:40:39;101902.72;;;27.75
62180;BMP280;48172;53.374;10.722;2022-07-23T09:43:06;101903.44;;;27.75
62180;BMP280;48172;53.374;10.722;2022-07-23T09:45:32;101902.22;;;27.76
62180;BMP280;48172;53.374;10.722;2022-07-23T09:48:15;101898.72;;;27.76
62180;BMP280;48172;53.374;10.722;2022-07-23T09:50:42;101901.47;;;27.76
62180;BMP280;48172;53.374;10.722;2022-07-23T09:53:08;101898.25;;;27.77
62180;BMP280;48172;53.374;10.722;2022-07-23T09:55:35;101899.75;;;27.78
62180;BMP280;48172;53.374;10.722;2022-07-23T09:58:06;101899.75;;;27.78
62180;BMP280;48172;53.374;10.722;2022-07-23T10:00:43;101895.00;;;27.79
62180;BMP280;48172;53.374;10.722;2022-07-23T10:03:12;101905.53;;;27.80
62180;BMP280;48172;53.374;10.722;2022-07-23T10:05:39;101906.00;;;27.79
62180;BMP280;48172;53.374;10.722;2022-07-23T10:08:11;101902.50;;;27.78
62180;BMP280;48172;53.374;10.722;2022-07-23T10:10:41;101909.50;;;27.79
62180;BMP280;48172;53.374;10.722;2022-07-23T10:13:09;101918.25;;;27.78
62180;BMP280;48172;53.374;10.722;2022-07-23T10:16:05;101922.97;;;27.77
62180;BMP280;48172;53.374;10.722;2022-07-23T10:18:31;101919.47;;;27.77
62180;BMP280;48172;53.374;10.722;2022-07-23T10:20:58;101928.16;;;27.75
62180;BMP280;48172;53.374;10.722;2022-07-23T10:23:37;101924.69;;;27.75
62180;BMP280;48172;53.374;10.722;2022-07-23T10:36:19;101926.38;;;27.72
62180;BMP280;48172;53.374;10.722;2022-07-23T10:41:13;101920.56;;;27.64
62180;BMP280;48172;53.374;10.722;2022-07-23T10:43:39;101920.72;;;27.61
62180;BMP280;48172;53.374;10.722;2022-07-23T10:46:22;101910.91;;;27.54
62180;BMP280;48172;53.374;10.722;2022-07-23T10:54:36;101925.22;;;27.44
62180;BMP280;48172;53.374;10.722;2022-07-23T11:02:28;101909.91;;;27.37
62180;BMP280;48172;53.374;10.722;2022-07-23T11:04:58;101902.91;;;27.36
62180;BMP280;48172;53.374;10.722;2022-07-23T11:07:25;101903.38;;;27.34
62180;BMP280;48172;53.374;10.722;2022-07-23T11:09:52;101915.59;;;27.33
62180;BMP280;48172;53.374;10.722;2022-07-23T11:17:28;101911.22;;;27.42
62180;BMP280;48172;53.374;10.722;2022-07-23T11:20:13;101903.06;;;27.47
62180;BMP280;48172;53.374;10.722;2022-07-23T11:25:08;101913.47;;;27.58
62180;BMP280;48172;53.374;10.722;2022-07-23T11:27:38;101916.00;;;27.61
62180;BMP280;48172;53.374;10.722;2022-07-23T11:30:06;101914.31;;;27.64
62180;BMP280;48172;53.374;10.722;2022-07-23T11:32:34;101910.59;;;27.67
62180;BMP280;48172;53.374;10.722;2022-07-23T11:35:24;101915.63;;;27.68
62180;BMP280;48172;53.374;10.722;2022-07-23T11:37:52;101919.84;;;27.69
62180;BMP280;48172;53.374;10.722;2022-07-23T11:40:24;101922.59;;;27.69
62180;BMP280;48172;53.374;10.722;2022-07-23T11:42:53;101924.88;;;27.71
62180;BMP280;48172;53.374;10.722;2022-07-23T11:45:20;101924.41;;;27.72
62180;BMP280;48172;53.374;10.722;2022-07-23T11:47:46;101926.38;;;27.72
62180;BMP280;48172;53.374;10.722;2022-07-23T11:50:13;101922.41;;;27.73
62180;BMP280;48172;53.374;10.722;2022-07-23T11:52:39;101923.94;;;27.74
62180;BMP280;48172;53.374;10.722;2022-07-23T11:55:07;101924.69;;;27.75
62180;BMP280;48172;53.374;10.722;2022-07-23T11:57:38;101920.69;;;27.76
62180;BMP280;48172;53.374;10.722;2022-07-23T12:00:09;101933.97;;;27.77
62180;BMP280;48172;53.374;10.722;2022-07-23T12:02:41;101924.00;;;27.80
62180;BMP280;48172;53.374;10.722;2022-07-23T12:05:11;101926.28;;;27.81
62180;BMP280;48172;53.374;10.722;2022-07-23T12:07:38;101923.81;;;27.83
62180;BMP280;48172;53.374;10.722;2022-07-23T12:10:13;101920.56;;;27.85
62180;BMP280;48172;53.374;10.722;2022-07-23T12:12:41;101921.63;;;27.87
62180;BMP280;48172;53.374;10.722;2022-07-23T12:15:11;101917.13;;;27.90
62180;BMP280;48172;53.374;10.722;2022-07-23T12:17:38;101911.44;;;27.93
62180;BMP280;48172;53.374;10.722;2022-07-23T12:20:06;101911.75;;;27.95
62180;BMP280;48172;53.374;10.722;2022-07-23T12:22:39;101906.50;;;27.97
62180;BMP280;48172;53.374;10.722;2022-07-23T12:25:07;101901.28;;;27.99
62180;BMP280;48172;53.374;10.722;2022-07-23T12:27:34;101898.81;;;28.01
62180;BMP280;48172;53.374;10.722;2022-07-23T12:33:03;101906.34;;;28.06
62180;BMP280;48172;53.374;10.722;2022-07-23T12:35:31;101904.38;;;28.07
62180;BMP280;48172;53.374;10.722;2022-07-23T12:38:02;101907.38;;;28.09
62180;BMP280;48172;53.374;10.722;2022-07-23T12:45:41;101915.22;;;28.16
62180;BMP280;48172;53.374;10.722;2022-07-23T12:48:08;101911.22;;;28.17
62180;BMP280;48172;53.374;10.722;2022-07-23T12:50:35;101917.78;;;28.20
62180;BMP280;48172;53.374;10.722;2022-07-23T12:53:05;101916.03;;;28.22
62180;BMP280;48172;53.374;10.722;2022-07-23T12:55:39;101916.78;;;28.23
62180;BMP280;48172;53.374;10.722;2022-07-23T12:58:25;101907.34;;;28.24
62180;BMP280;48172;53.374;10.722;2022-07-23T13:01:04;101910.34;;;28.26
62180;BMP280;48172;53.374;10.722;2022-07-23T13:05:58;101926.06;;;28.25
62180;BMP280;48172;53.374;10.722;2022-07-23T13:08:26;101925.31;;;28.25
62180;BMP280;48172;53.374;10.722;2022-07-23T13:10:52;101930.06;;;28.24
62180;BMP280;48172;53.374;10.722;2022-07-23T13:13:23;101930.06;;;28.24
62180;BMP280;48172;53.374;10.722;2022-07-23T13:15:55;101926.56;;;28.24
62180;BMP280;48172;53.374;10.722;2022-07-23T13:18:23;101929.56;;;28.26
62180;BMP280;48172;53.374;10.722;2022-07-23T13:20:50;101930.81;;;28.25
62180;BMP280;48172;53.374;10.722;2022-07-23T13:23:17;101928.81;;;28.25
62180;BMP280;48172;53.374;10.722;2022-07-23T13:25:43;101932.31;;;28.26
62180;BMP280;48172;53.374;10.722;2022-07-23T13:28:12;101932.31;;;28.26
62180;BMP280;48172;53.374;10.722;2022-07-23T13:30:39;101939.81;;;28.25
62180;BMP280;48172;53.374;10.722;2022-07-23T13:33:06;101947.00;;;28.23
62180;BMP280;48172;53.374;10.722;2022-07-23T13:35:34;101949.00;;;28.22
62180;BMP280;48172;53.374;10.722;2022-07-23T13:38:01;101955.00;;;28.21
62180;BMP280;48172;53.374;10.722;2022-07-23T13:40:27;101955.00;;;28.21
62180;BMP280;48172;53.374;10.722;2022-07-23T13:42:54;101961.75;;;28.20
62180;BMP280;48172;53.374;10.722;2022-07-23T13:45:21;101953.50;;;28.20
62180;BMP280;48172;53.374;10.722;2022-07-23T13:47:47;101953.97;;;28.18
62180;BMP280;48172;53.374;10.722;2022-07-23T13:50:14;101956.72;;;28.18
62180;BMP280;48172;53.374;10.722;2022-07-23T13:52:46;101955.97;;;28.18
62180;BMP280;48172;53.374;10.722;2022-07-23T13:55:12;101950.47;;;28.18
62180;BMP280;48172;53.374;10.722;2022-07-23T13:57:41;101951.69;;;28.17
62180;BMP280;48172;53.374;10.722;2022-07-23T14:00:09;101955.19;;;28.17
62180;BMP280;48172;53.374;10.722;2022-07-23T14:02:57;101951.22;;;28.18
62180;BMP280;48172;53.374;10.722;2022-07-23T14:05:24;101955.69;;;28.16
62180;BMP280;48172;53.374;10.722;2022-07-23T14:07:51;101950.94;;;28.16
62180;BMP280;48172;53.374;10.722;2022-07-23T14:10:18;101947.44;;;28.16
62180;BMP280;48172;53.374;10.722;2022-07-23T14:12:48;101950.19;;;28.16
62180;BMP280;48172;53.374;10.722;2022-07-23T14:15:15;101946.19;;;28.17
62180;BMP280;48172;53.374;10.722;2022-07-23T14:17:43;101955.69;;;28.16
62180;BMP280;48172;53.374;10.722;2022-07-23T14:20:10;101957.94;;;28.17
62180;BMP280;48172;53.374;10.722;2022-07-23T14:22:36;101958.41;;;28.16
62180;BMP280;48172;53.374;10.722;2022-07-23T14:25:04;101955.19;;;28.17
62180;BMP280;48172;53.374;10.722;2022-07-23T14:27:33;101956.44;;;28.16
62180;BMP280;48172;53.374;10.722;2022-07-23T14:30:00;101957.94;;;28.17
62180;BMP280;48172;53.374;10.722;2022-07-23T14:32:26;101954.44;;;28.17